Time;durP1;ratioP1;P1;durP2;ratioP2;P2;SDS_P1;SDS_P2;PMS_P1;PMS_P2;Temp;Humidity;BMP_temperature;BMP_pressure;BME280_temperature;BME280_humidity;BME280_pressure;Samples;Min_cycle;Max_cycle;Signal;HPM_P1;HPM_P2
2021/07/22 00:00:04;;;;;;;28.55;20.35;;;;;;;21.82;58.95;98984.78;5047543;28;20095;-49
2021/07/22 00:02:30;;;;;;;28.13;18.38;;;;;;;21.88;58.53;98980.25;5047222;28;20490;-50
2021/07/22 00:04:56;;;;;;;19.85;17.60;;;;;;;21.96;58.67;98987.75;5031948;28;20060;-49
2021/07/22 00:07:22;;;;;;;18.60;15.68;;;;;;;22.06;58.27;98984.28;5032082;28;20036;-50
2021/07/22 00:09:47;;;;;;;22.27;15.13;;;;;;;22.03;57.79;98987.47;5030544;28;20025;-50
2021/07/22 00:12:14;;;;;;;22.13;19.70;;;;;;;21.91;58.09;98998.41;5047099;28;20034;-50
2021/07/22 00:14:40;;;;;;;27.88;24.50;;;;;;;21.73;58.27;98989.06;5046810;28;20057;-50
2021/07/22 00:17:07;;;;;;;20.75;16.70;;;;;;;21.46;59.08;98986.63;5031777;28;20021;-50
2021/07/22 00:19:34;;;;;;;17.48;13.57;;;;;;;21.44;59.06;98983.41;5047024;28;20039;-49
2021/07/22 00:22:00;;;;;;;19.40;17.35;;;;;;;21.27;59.39;98979.09;5031773;28;20056;-50
2021/07/22 00:24:26;;;;;;;18.00;16.20;;;;;;;21.05;59.76;98983.84;5031684;28;20021;-50
2021/07/22 00:26:52;;;;;;;25.70;18.20;;;;;;;20.83;60.57;98989.34;5031696;28;20384;-50
2021/07/22 00:29:18;;;;;;;23.80;20.60;;;;;;;20.68;60.75;98990.06;5046975;28;20442;-50
2021/07/22 00:31:44;;;;;;;24.23;16.10;;;;;;;20.73;61.42;98984.75;5030250;28;20087;-49
2021/07/22 00:34:09;;;;;;;23.05;18.77;;;;;;;20.93;61.03;98970.72;5030310;28;20025;-49
2021/07/22 00:36:35;;;;;;;21.63;16.33;;;;;;;21.04;60.54;98975.00;5047082;28;20038;-49
2021/07/22 00:39:01;;;;;;;21.15;18.92;;;;;;;21.00;60.49;98983.78;5031614;28;20082;-50
2021/07/22 00:41:28;;;;;;;26.60;23.80;;;;;;;20.90;60.62;98980.00;5030192;28;20119;-50
2021/07/22 00:43:54;;;;;;;25.88;20.48;;;;;;;20.88;60.60;98976.81;5031544;28;20154;-49
2021/07/22 00:46:19;;;;;;;21.95;19.63;;;;;;;20.86;60.91;98981.59;5030486;28;20068;-50
2021/07/22 00:48:45;;;;;;;19.85;16.02;;;;;;;20.89;60.66;98978.44;5046791;28;20453;-49
2021/07/22 00:51:11;;;;;;;24.67;22.05;;;;;;;20.85;60.54;98976.53;5031421;28;20026;-49
2021/07/22 00:53:36;;;;;;;36.88;33.20;;;;;;;20.86;60.79;98970.13;5046716;28;20052;-49
2021/07/22 00:56:04;;;;;;;26.65;22.20;;;;;;;21.07;60.79;98971.03;5031311;28;20427;-50
2021/07/22 00:58:30;;;;;;;23.60;18.67;;;;;;;21.25;60.07;98970.53;5035169;28;20132;-49
2021/07/22 01:00:55;;;;;;;37.90;34.10;;;;;;;21.31;59.48;98971.34;5035205;28;20083;-50
2021/07/22 01:03:21;;;;;;;24.45;16.70;;;;;;;21.26;59.79;98972.13;5050476;28;20048;-50
2021/07/22 01:05:46;;;;;;;27.23;24.40;;;;;;;21.24;59.23;98973.47;5035160;28;20029;-50
2021/07/22 01:08:12;;;;;;;27.73;23.60;;;;;;;21.09;59.60;98966.22;5035090;28;20029;-48
2021/07/22 01:10:38;;;;;;;24.30;21.90;;;;;;;20.92;60.04;98969.88;5050361;28;20114;-49
2021/07/22 01:13:04;;;;;;;30.15;27.05;;;;;;;20.81;60.42;98973.59;5033749;28;20025;-49
2021/07/22 01:15:30;;;;;;;58.95;31.35;;;;;;;20.72;60.72;98972.47;5034616;28;20046;-50
2021/07/22 01:17:56;;;;;;;43.72;31.60;;;;;;;20.70;60.68;98978.06;5034907;28;20112;-50
2021/07/22 01:20:24;;;;;;;40.97;26.58;;;;;;;20.74;61.00;98975.69;5034852;28;20049;-50
2021/07/22 01:22:52;;;;;;;21.58;16.08;;;;;;;20.85;60.64;98980.00;5034804;28;20030;-50
2021/07/22 01:25:19;;;;;;;28.48;21.52;;;;;;;20.86;60.39;98989.59;5034761;28;20554;-50
2021/07/22 01:27:53;;;;;;;21.33;17.35;;;;;;;20.86;60.45;98983.47;5034732;28;20025;-50
2021/07/22 01:30:19;;;;;;;42.67;38.35;;;;;;;20.75;60.42;98986.09;5034670;28;20026;-50
2021/07/22 01:32:45;;;;;;;28.23;22.08;;;;;;;20.76;60.79;98986.88;5034621;28;20029;-49
2021/07/22 01:35:12;;;;;;;23.23;20.63;;;;;;;20.84;60.59;98986.38;5034774;28;20021;-50
2021/07/22 01:37:43;;;;;;;30.40;27.20;;;;;;;20.88;60.31;98989.34;5034528;28;20116;-49
2021/07/22 01:40:11;;;;;;;35.70;32.10;;;;;;;20.88;60.27;98982.13;5034431;28;20112;-50
2021/07/22 01:42:40;;;;;;;22.52;20.15;;;;;;;20.91;59.95;98978.97;5049773;28;20060;-49
2021/07/22 01:45:07;;;;;;;19.00;15.75;;;;;;;20.74;60.02;98979.16;5049750;28;20080;-50
2021/07/22 01:47:34;;;;;;;26.67;23.90;;;;;;;20.58;60.48;98988.09;5034292;28;20036;-50
2021/07/22 01:50:00;;;;;;;28.88;23.58;;;;;;;20.56;61.01;98982.22;5034338;28;20021;-50
2021/07/22 01:52:26;;;;;;;22.50;18.13;;;;;;;20.60;60.62;98982.53;5034297;28;20072;-49
2021/07/22 01:54:52;;;;;;;21.45;15.73;;;;;;;20.57;60.74;98980.38;5034271;28;20025;-49
2021/07/22 01:57:17;;;;;;;23.42;17.20;;;;;;;20.59;60.63;98980.97;5049445;28;20036;-50
2021/07/22 01:59:43;;;;;;;32.45;25.92;;;;;;;20.66;60.55;98984.19;5049486;28;20030;-50
2021/07/22 02:02:09;;;;;;;19.90;14.75;;;;;;;20.65;60.20;98983.38;5034168;28;20025;-49
2021/07/22 02:04:37;;;;;;;22.15;15.82;;;;;;;20.49;60.20;98976.34;5034055;28;20052;-49
2021/07/22 02:07:03;;;;;;;31.27;19.90;;;;;;;20.40;60.67;98976.00;5034024;28;20017;-50
2021/07/22 02:09:28;;;;;;;23.77;17.85;;;;;;;20.38;60.76;98980.78;5033662;28;20025;-50
2021/07/22 02:11:57;;;;;;;25.50;18.45;;;;;;;20.26;60.83;98990.84;5032584;28;20026;-50
2021/07/22 02:14:23;;;;;;;28.55;25.25;;;;;;;20.07;61.32;98983.25;5033527;28;20045;-50
2021/07/22 02:16:49;;;;;;;20.20;16.73;;;;;;;19.89;61.85;98984.44;5033909;28;20025;-49
2021/07/22 02:19:15;;;;;;;19.67;16.20;;;;;;;19.70;62.38;98985.84;5049116;28;20172;-50
2021/07/22 02:21:41;;;;;;;27.20;23.25;;;;;;;19.53;62.78;98985.94;5033987;28;20091;-50
2021/07/22 02:24:08;;;;;;;23.95;19.40;;;;;;;19.38;63.45;98988.44;5033728;28;20048;-49
2021/07/22 02:26:34;;;;;;;43.20;38.80;;;;;;;19.29;63.63;98991.56;5048943;28;20128;-49
2021/07/22 02:29:01;;;;;;;27.75;16.25;;;;;;;19.39;63.78;98987.41;5033920;28;20029;-49
2021/07/22 02:31:26;;;;;;;20.38;16.85;;;;;;;19.50;63.40;98995.25;5032178;28;20024;-49
2021/07/22 02:33:52;;;;;;;22.42;19.15;;;;;;;19.64;62.96;98992.16;5033548;28;20029;-50
2021/07/22 02:36:18;;;;;;;19.23;15.10;;;;;;;19.75;62.59;98991.25;5033414;28;20394;-49
2021/07/22 02:38:44;;;;;;;19.90;17.77;;;;;;;19.79;62.01;98980.88;5033427;28;20036;-49
2021/07/22 02:41:10;;;;;;;26.15;21.58;;;;;;;19.70;62.23;98983.19;5048749;28;20026;-50
2021/07/22 02:43:35;;;;;;;23.52;19.13;;;;;;;19.66;62.50;98987.38;5033360;28;20376;-49
2021/07/22 02:46:06;;;;;;;22.10;17.92;;;;;;;19.63;62.63;98994.03;5033274;28;20025;-50
2021/07/22 02:48:32;;;;;;;38.53;34.42;;;;;;;19.57;62.45;98997.69;5033424;28;20053;-50
2021/07/22 02:51:00;;;;;;;22.55;18.00;;;;;;;19.41;63.17;99002.06;5048490;28;20533;-50
2021/07/22 02:53:29;;;;;;;23.05;17.17;;;;;;;19.45;63.10;98997.03;5033335;28;20065;-49
2021/07/22 02:55:56;;;;;;;18.60;14.30;;;;;;;19.40;63.04;98997.81;5033002;28;20683;-49
2021/07/22 02:58:22;;;;;;;25.23;20.20;;;;;;;19.19;63.50;98999.44;5048380;28;20026;-49
2021/07/22 03:00:47;;;;;;;25.02;17.77;;;;;;;19.10;63.95;99007.03;5048282;28;20040;-49
2021/07/22 03:03:13;;;;;;;27.30;18.77;;;;;;;19.15;63.83;99004.44;5031601;28;20122;-50
2021/07/22 03:05:39;;;;;;;25.83;21.08;;;;;;;19.11;63.71;99005.19;5048261;28;20026;-50
2021/07/22 03:08:04;;;;;;;25.27;19.70;;;;;;;19.00;64.36;99006.94;5048191;28;20116;-50
2021/07/22 03:10:30;;;;;;;66.43;60.17;;;;;;;19.03;64.37;99008.28;5032717;28;20076;-50
2021/07/22 03:12:56;;;;;;;24.13;20.05;;;;;;;19.04;64.16;99016.03;5032883;28;20087;-50
2021/07/22 03:15:21;;;;;;;30.50;22.08;;;;;;;19.12;64.54;99006.81;5047656;28;20045;-51
2021/07/22 03:17:47;;;;;;;43.63;37.85;;;;;;;19.45;63.81;99010.34;5031442;28;20025;-52
2021/07/22 03:20:13;;;;;;;22.15;19.02;;;;;;;19.68;62.98;98998.59;5047177;28;20030;-52
2021/07/22 03:22:39;;;;;;;28.75;20.80;;;;;;;19.81;62.30;99000.09;5032624;28;20083;-52
2021/07/22 03:25:05;;;;;;;22.38;18.35;;;;;;;19.79;61.89;98996.88;5047895;28;20056;-52
2021/07/22 03:27:31;;;;;;;31.35;23.55;;;;;;;19.86;62.16;99005.44;5031231;28;20568;-52
2021/07/22 03:29:56;;;;;;;55.30;49.88;;;;;;;19.97;61.71;98999.16;5047771;28;20034;-52
2021/07/22 03:32:22;;;;;;;20.55;18.45;;;;;;;20.00;61.21;99003.16;5047744;28;20071;-51
2021/07/22 03:34:47;;;;;;;24.05;20.70;;;;;;;19.87;61.19;98999.06;5047664;28;20025;-52
2021/07/22 03:37:14;;;;;;;30.45;23.48;;;;;;;19.86;61.33;99010.75;5047630;28;20034;-52
2021/07/22 03:39:43;;;;;;;52.22;46.90;;;;;;;19.86;61.09;99005.44;5047591;28;20021;-52
2021/07/22 03:42:08;;;;;;;20.90;15.93;;;;;;;19.68;61.17;99011.91;5047580;28;20498;-52
2021/07/22 03:44:35;;;;;;;19.55;13.90;;;;;;;19.46;61.45;99012.78;5047603;28;20037;-52
2021/07/22 03:47:01;;;;;;;23.73;21.00;;;;;;;19.14;61.91;99013.47;5032133;28;20017;-52
2021/07/22 03:49:26;;;;;;;26.00;16.52;;;;;;;18.81;62.84;99017.03;5030877;28;20025;-52
2021/07/22 03:51:56;;;;;;;28.60;20.08;;;;;;;18.71;63.70;99011.56;5032118;28;20100;-52
2021/07/22 03:54:21;;;;;;;27.95;20.60;;;;;;;18.72;63.86;99015.84;5030719;28;20406;-52
2021/07/22 03:56:47;;;;;;;22.45;16.83;;;;;;;18.67;63.92;99008.63;5031961;28;20036;-52
2021/07/22 03:59:16;;;;;;;28.98;25.85;;;;;;;18.59;65.68;99016.19;5030737;28;20036;-52
2021/07/22 04:01:43;;;;;;;32.13;22.08;;;;;;;18.31;66.71;99020.56;5032033;28;20033;-52
2021/07/22 04:04:09;;;;;;;31.83;25.83;;;;;;;17.98;66.93;99022.16;5031947;28;20058;-52
2021/07/22 04:06:36;;;;;;;22.35;15.98;;;;;;;17.66;68.02;99029.81;5047220;28;20025;-52
2021/07/22 04:09:05;;;;;;;20.10;16.13;;;;;;;17.52;68.69;99026.63;5031944;28;20029;-52
2021/07/22 04:11:31;;;;;;;24.63;21.63;;;;;;;17.40;68.72;99017.91;5030566;28;20020;-52
2021/07/22 04:13:57;;;;;;;34.72;30.80;;;;;;;17.31;69.15;99026.25;5046766;28;20037;-52
2021/07/22 04:16:22;;;;;;;52.90;47.38;;;;;;;17.29;69.18;99031.00;5031774;28;20025;-52
2021/07/22 04:18:48;;;;;;;51.35;45.80;;;;;;;17.35;69.55;99026.59;5031819;28;20025;-52
2021/07/22 04:21:14;;;;;;;206.85;174.73;;;;;;;17.61;69.19;99033.19;5031978;28;20031;-52
2021/07/22 04:23:41;;;;;;;88.45;69.93;;;;;;;17.84;68.30;99026.97;5047024;28;20022;-52
2021/07/22 04:26:07;;;;;;;35.53;30.17;;;;;;;18.03;67.48;99032.06;5031655;28;20025;-52
2021/07/22 04:28:32;;;;;;;38.38;30.27;;;;;;;18.09;66.78;99025.78;5047061;28;20037;-52
2021/07/22 04:30:58;;;;;;;38.42;34.63;;;;;;;18.07;66.77;99031.38;5032475;28;20037;-52
2021/07/22 04:33:24;;;;;;;20.58;17.90;;;;;;;18.10;66.39;99033.53;5035815;28;20061;-52
2021/07/22 04:35:57;;;;;;;26.10;20.30;;;;;;;18.09;66.47;99034.56;5035668;28;20442;-52
2021/07/22 04:38:23;;;;;;;23.38;16.70;;;;;;;18.17;66.20;99046.66;5034436;28;20037;-52
2021/07/22 04:40:49;;;;;;;24.05;16.52;;;;;;;18.30;66.26;99041.00;5050944;28;20668;-52
2021/07/22 04:43:14;;;;;;;28.52;19.20;;;;;;;18.68;65.46;99036.00;5034250;28;20057;-51
2021/07/22 04:45:40;;;;;;;19.73;16.55;;;;;;;19.30;63.32;99030.44;5050891;28;20026;-52
2021/07/22 04:48:06;;;;;;;21.15;18.48;;;;;;;19.90;61.47;99030.50;5050855;28;20083;-52
2021/07/22 04:50:31;;;;;;;27.95;17.85;;;;;;;20.47;59.70;99032.56;5051019;28;20083;-52
2021/07/22 04:53:00;;;;;;;36.55;27.45;;;;;;;20.95;57.93;99036.06;5050805;28;20060;-52
2021/07/22 04:55:26;;;;;;;35.63;31.88;;;;;;;21.24;56.54;99037.53;5035315;28;20017;-52
2021/07/22 04:57:59;;;;;;;21.23;18.50;;;;;;;21.49;55.32;99042.16;5035329;28;20159;-52
2021/07/22 05:00:27;;;;;;;31.30;26.17;;;;;;;21.72;54.93;99032.88;5033940;28;20022;-53
2021/07/22 05:02:58;;;;;;;29.80;24.38;;;;;;;21.77;54.59;99040.88;5035300;28;20037;-52
2021/07/22 05:05:27;;;;;;;31.20;25.27;;;;;;;21.84;54.86;99029.97;5033830;28;20129;-52
2021/07/22 05:07:53;;;;;;;34.60;28.00;;;;;;;21.97;54.77;99034.75;5033828;28;20112;-52
2021/07/22 05:10:19;;;;;;;24.75;17.20;;;;;;;22.22;54.08;99033.97;5033776;28;20036;-52
2021/07/22 05:12:45;;;;;;;24.23;14.10;;;;;;;22.71;52.97;99035.28;5035029;28;20035;-52
2021/07/22 05:15:12;;;;;;;39.78;24.58;;;;;;;22.71;52.32;99037.94;5034717;28;20521;-52
2021/07/22 05:17:38;;;;;;;25.75;20.23;;;;;;;23.09;51.86;99038.41;5035033;28;20056;-52
2021/07/22 05:20:05;;;;;;;21.90;16.75;;;;;;;23.62;50.45;99041.31;5034912;28;20112;-52
2021/07/22 05:22:31;;;;;;;19.52;15.65;;;;;;;24.36;48.55;99040.56;5034863;28;20471;-52
2021/07/22 05:24:56;;;;;;;24.10;16.60;;;;;;;25.13;46.98;99032.50;5034804;28;20112;-52
2021/07/22 05:27:22;;;;;;;19.25;15.20;;;;;;;25.98;44.66;99038.91;5034734;28;20026;-50
2021/07/22 05:29:48;;;;;;;23.13;18.92;;;;;;;26.54;43.41;99039.00;5034676;28;20109;-50
2021/07/22 05:32:14;;;;;;;26.35;22.58;;;;;;;27.06;42.55;99045.03;5050022;28;20022;-50
2021/07/22 05:34:40;;;;;;;28.05;20.48;;;;;;;27.46;41.35;99038.03;5034631;28;20491;-50
2021/07/22 05:37:07;;;;;;;21.33;16.88;;;;;;;27.93;40.76;99034.28;5049921;28;20028;-51
2021/07/22 05:39:34;;;;;;;30.52;26.67;;;;;;;28.41;39.32;99044.44;5049928;28;20036;-51
2021/07/22 05:42:00;;;;;;;41.95;34.90;;;;;;;28.92;38.69;99039.63;5034471;28;20105;-50
2021/07/22 05:44:26;;;;;;;23.90;21.35;;;;;;;29.43;37.37;99030.81;5049088;28;20116;-51
2021/07/22 05:46:52;;;;;;;28.73;23.73;;;;;;;29.87;36.40;99028.13;5034453;28;20044;-50
2021/07/22 05:49:17;;;;;;;30.65;18.65;;;;;;;30.27;35.66;99031.41;5034425;28;20028;-50
2021/07/22 05:51:43;;;;;;;21.55;15.82;;;;;;;30.62;35.12;99028.59;5034511;28;20049;-50
2021/07/22 05:54:12;;;;;;;39.38;19.08;;;;;;;31.03;34.47;99029.09;5034304;28;20056;-50
2021/07/22 05:56:38;;;;;;;24.40;15.75;;;;;;;31.48;33.68;99025.75;5034200;28;20025;-50
2021/07/22 05:59:03;;;;;;;24.23;16.92;;;;;;;31.99;33.03;99028.34;5032880;28;20380;-51
2021/07/22 06:01:29;;;;;;;27.85;15.73;;;;;;;32.46;33.06;99022.59;5034115;28;20494;-50
2021/07/22 06:03:55;;;;;;;26.02;17.63;;;;;;;32.89;32.23;99023.19;5034168;28;20112;-49
2021/07/22 06:06:21;;;;;;;29.15;14.82;;;;;;;33.18;31.88;99028.41;5032738;28;20022;-50
2021/07/22 06:08:47;;;;;;;18.85;13.02;;;;;;;33.38;31.38;99023.94;5034045;28;20022;-50
2021/07/22 06:11:13;;;;;;;17.70;14.70;;;;;;;33.73;30.32;99023.38;5034020;28;20536;-51
2021/07/22 06:13:39;;;;;;;24.05;15.57;;;;;;;34.16;29.83;99021.81;5033941;28;20022;-51
2021/07/22 06:16:10;;;;;;;41.60;19.33;;;;;;;34.54;28.65;99025.09;5033615;28;20045;-50
2021/07/22 06:18:36;;;;;;;23.02;18.17;;;;;;;34.79;28.58;99029.25;5033891;28;20108;-50
2021/07/22 06:21:02;;;;;;;36.17;15.43;;;;;;;35.32;27.45;99039.00;5049119;28;20022;-50
2021/07/22 06:23:28;;;;;;;38.83;16.13;;;;;;;35.84;27.02;99031.47;5033814;28;20022;-50
2021/07/22 06:25:58;;;;;;;36.15;14.13;;;;;;;36.23;26.39;99036.91;5033684;28;20124;-50
2021/07/22 06:28:24;;;;;;;28.45;15.13;;;;;;;36.54;26.34;99035.84;5033680;28;20030;-50
2021/07/22 06:30:52;;;;;;;37.03;13.73;;;;;;;36.92;25.60;99031.38;5033565;28;20025;-50
2021/07/22 06:33:18;;;;;;;20.25;12.95;;;;;;;36.96;25.32;99030.25;5048856;28;20052;-50
2021/07/22 06:35:43;;;;;;;22.17;14.35;;;;;;;36.47;25.76;99038.50;5048743;28;20068;-50
2021/07/22 06:38:09;;;;;;;20.77;12.30;;;;;;;36.23;26.14;99031.44;5048747;28;20030;-50
2021/07/22 06:40:35;;;;;;;15.88;12.48;;;;;;;36.07;26.44;99031.53;5048790;28;20032;-50
2021/07/22 06:43:01;;;;;;;16.23;12.35;;;;;;;35.45;27.20;99020.53;5048690;28;20105;-49
2021/07/22 06:45:27;;;;;;;19.10;12.43;;;;;;;35.54;27.00;99021.91;5033294;28;20105;-50
2021/07/22 06:47:52;;;;;;;18.35;15.10;;;;;;;35.63;27.04;99029.88;5048537;28;20120;-50
2021/07/22 06:50:18;;;;;;;19.50;12.63;;;;;;;36.23;26.23;99015.03;5033241;28;20496;-50
2021/07/22 06:52:44;;;;;;;15.77;12.45;;;;;;;36.53;25.32;99024.13;5048429;28;20079;-50
2021/07/22 06:55:10;;;;;;;15.38;12.57;;;;;;;36.72;25.58;99017.81;5047203;28;20112;-50
2021/07/22 06:57:36;;;;;;;16.63;11.85;;;;;;;37.09;24.83;99022.63;5048447;28;20028;-50
2021/07/22 07:00:04;;;;;;;50.13;44.00;;;;;;;37.38;24.26;99020.28;5033001;28;20018;-50
2021/07/22 07:02:29;;;;;;;31.60;23.63;;;;;;;37.54;24.01;99025.56;5048255;28;20116;-50
2021/07/22 07:04:55;;;;;;;47.88;36.80;;;;;;;38.11;23.51;99022.69;5032949;28;20064;-50
2021/07/22 07:07:21;;;;;;;22.10;17.23;;;;;;;38.26;23.22;99027.16;5048139;28;20040;-50
2021/07/22 07:09:46;;;;;;;17.00;12.25;;;;;;;38.30;23.13;99021.72;5048121;28;20029;-50
2021/07/22 07:12:12;;;;;;;29.27;14.13;;;;;;;37.79;24.00;99023.13;5032773;28;20022;-50
2021/07/22 07:14:38;;;;;;;13.57;11.27;;;;;;;37.58;23.92;99029.13;5031097;28;20075;-50
2021/07/22 07:17:04;;;;;;;18.90;11.63;;;;;;;37.92;23.76;99027.19;5047955;28;20037;-50
2021/07/22 07:19:30;;;;;;;16.80;12.40;;;;;;;37.87;23.67;99027.56;5047984;28;20075;-50
2021/07/22 07:21:56;;;;;;;19.58;12.80;;;;;;;37.69;24.06;99029.28;5032625;28;20471;-50
2021/07/22 07:24:22;;;;;;;24.60;18.88;;;;;;;37.64;24.07;99035.91;5032621;28;20028;-50
2021/07/22 07:26:47;;;;;;;15.77;12.60;;;;;;;37.74;23.89;99020.75;5047865;28;20057;-50
2021/07/22 07:29:14;;;;;;;16.33;11.88;;;;;;;37.63;23.63;99030.78;5047813;28;20029;-50
2021/07/22 07:31:40;;;;;;;18.17;12.43;;;;;;;37.28;24.22;99026.44;5032471;28;20030;-50
2021/07/22 07:34:06;;;;;;;13.93;11.15;;;;;;;37.25;24.50;99041.66;5032418;28;20095;-50
2021/07/22 07:36:32;;;;;;;14.52;12.80;;;;;;;37.17;24.26;99034.50;5047611;28;20033;-50
2021/07/22 07:38:58;;;;;;;26.08;14.35;;;;;;;37.14;24.38;99027.81;5032343;28;20029;-50
2021/07/22 07:41:23;;;;;;;14.07;12.38;;;;;;;36.68;25.10;99038.84;5032302;28;20060;-50
2021/07/22 07:43:49;;;;;;;16.35;12.10;;;;;;;36.34;25.80;99035.94;5032249;28;20025;-49
2021/07/22 07:46:15;;;;;;;17.73;12.68;;;;;;;36.33;25.85;99037.09;5030909;28;20029;-50
2021/07/22 07:48:41;;;;;;;21.73;13.05;;;;;;;36.47;25.68;99035.75;5032230;28;20031;-51
2021/07/22 07:51:08;;;;;;;20.67;13.65;;;;;;;36.83;25.24;99033.59;5032150;28;20441;-51
2021/07/22 07:53:35;;;;;;;19.17;13.30;;;;;;;37.13;24.78;99031.72;5032121;28;20517;-54
2021/07/22 07:56:01;;;;;;;21.45;12.90;;;;;;;36.99;25.29;99028.75;5032000;28;20025;-53
2021/07/22 07:58:27;;;;;;;21.17;13.98;;;;;;;36.99;25.01;99031.50;5032114;28;20442;-53
2021/07/22 08:00:53;;;;;;;13.73;11.52;;;;;;;36.71;25.20;99029.13;5031946;28;20025;-53
2021/07/22 08:03:20;;;;;;;15.00;12.45;;;;;;;36.28;25.92;99028.38;5047266;28;20293;-53
2021/07/22 08:05:51;;;;;;;17.02;11.90;;;;;;;36.55;25.29;99021.03;5031612;28;20037;-53
2021/07/22 08:08:17;;;;;;;15.25;12.20;;;;;;;37.06;24.95;99023.38;5031984;28;20076;-53
2021/07/22 08:10:43;;;;;;;19.52;12.93;;;;;;;37.65;24.39;99025.72;5047477;28;20041;-53
2021/07/22 08:13:10;;;;;;;25.92;14.35;;;;;;;38.03;24.03;99015.53;5031848;28;20373;-51
2021/07/22 08:15:37;;;;;;;20.60;13.75;;;;;;;38.07;23.93;99021.88;5046753;28;20065;-51
2021/07/22 08:18:04;;;;;;;18.80;13.10;;;;;;;38.22;23.84;99018.13;5031765;28;20056;-51
2021/07/22 08:20:30;;;;;;;20.50;13.27;;;;;;;38.03;24.23;99010.06;5031884;28;20022;-51
2021/07/22 08:22:56;;;;;;;19.45;13.23;;;;;;;38.41;24.26;99005.34;5031768;28;20483;-51
2021/07/22 08:25:23;;;;;;;21.48;13.63;;;;;;;39.46;22.81;99013.88;5031731;28;20061;-52
2021/07/22 08:27:49;;;;;;;77.22;17.50;;;;;;;40.43;22.27;99013.25;5031730;28;20022;-53
2021/07/22 08:30:14;;;;;;;67.70;16.63;;;;;;;40.55;21.84;99015.63;5031552;28;20380;-53
2021/07/22 08:32:40;;;;;;;37.17;13.45;;;;;;;40.91;21.45;99021.88;5030370;28;20032;-53
2021/07/22 08:35:06;;;;;;;26.88;13.23;;;;;;;41.35;21.29;99013.50;5031540;28;20110;-53
2021/07/22 08:37:32;;;;;;;109.03;20.55;;;;;;;41.83;20.91;99010.13;5031634;28;20029;-54
2021/07/22 08:40:00;;;;;;;47.22;14.32;;;;;;;42.49;20.33;99004.50;5031589;28;20017;-53
2021/07/22 08:42:33;;;;;;;86.82;16.70;;;;;;;42.86;19.90;98999.44;5031619;28;20083;-54
2021/07/22 08:44:58;;;;;;;15.48;13.50;;;;;;;42.96;20.00;99006.81;5031602;28;20407;-52
2021/07/22 08:47:25;;;;;;;15.43;12.73;;;;;;;43.00;19.76;99004.78;5046840;28;20030;-53
2021/07/22 08:49:51;;;;;;;19.20;12.98;;;;;;;42.64;20.12;99004.38;5031483;28;20033;-53
2021/07/22 08:52:17;;;;;;;17.30;12.60;;;;;;;42.03;20.83;99000.16;5046768;28;20139;-53
2021/07/22 08:54:43;;;;;;;17.48;12.48;;;;;;;41.71;21.15;99000.34;5031389;28;20510;-53
2021/07/22 08:57:12;;;;;;;16.55;12.45;;;;;;;41.58;21.21;98988.19;5046684;28;20033;-53
2021/07/22 08:59:38;;;;;;;13.65;12.35;;;;;;;41.68;21.14;98993.66;5030122;28;20021;-53
2021/07/22 09:02:05;;;;;;;18.88;12.43;;;;;;;41.79;21.05;98993.59;5030073;28;20513;-53
2021/07/22 09:04:53;;;;;;;22.05;13.02;;;;;;;42.09;20.90;98993.00;5046609;28;20036;-54
2021/07/22 09:07:19;;;;;;;22.27;14.77;;;;;;;42.07;21.08;98984.34;5031431;28;20029;-53
2021/07/22 09:10:08;;;;;;;19.42;12.80;;;;;;;42.41;20.77;98980.91;5031363;28;20100;-53
2021/07/22 09:12:45;;;;;;;14.30;12.45;;;;;;;42.60;20.74;98976.81;5031200;28;20148;-54
2021/07/22 09:15:18;;;;;;;29.35;15.15;;;;;;;42.95;20.66;98982.41;5030377;28;20052;-53
2021/07/22 09:17:44;;;;;;;14.93;13.23;;;;;;;43.10;20.32;98978.25;5031757;28;20067;-53
2021/07/22 09:20:11;;;;;;;12.65;11.30;;;;;;;43.07;20.05;98976.31;5033638;28;20120;-53
2021/07/22 09:22:41;;;;;;;18.33;12.70;;;;;;;43.33;19.92;98974.03;5034963;28;20458;-52
2021/07/22 09:25:09;;;;;;;13.93;12.30;;;;;;;43.29;19.60;98972.13;5034893;28;20475;-53
2021/07/22 09:27:40;;;;;;;18.45;12.38;;;;;;;42.84;20.31;98975.00;5034828;28;20110;-54
2021/07/22 09:30:11;;;;;;;18.15;13.57;;;;;;;42.81;20.46;98972.25;5034732;28;20114;-53
2021/07/22 09:32:38;;;;;;;34.03;13.43;;;;;;;42.86;20.32;98972.63;5034772;28;20395;-53
2021/07/22 09:35:09;;;;;;;26.48;15.30;;;;;;;42.69;20.89;98968.81;5034579;28;20026;-53
2021/07/22 09:37:37;;;;;;;25.58;14.43;;;;;;;42.72;20.72;98983.78;5034608;28;20036;-53
2021/07/22 09:40:04;;;;;;;18.23;14.15;;;;;;;42.96;20.57;98975.66;5049835;28;20176;-53
2021/07/22 09:42:40;;;;;;;27.15;19.83;;;;;;;43.27;19.97;98970.97;5034555;28;20026;-53
2021/07/22 09:45:19;;;;;;;16.10;11.93;;;;;;;43.13;19.78;98971.13;5033236;28;20496;-53
2021/07/22 09:47:46;;;;;;;13.70;12.27;;;;;;;43.39;19.61;98967.66;5049811;28;20399;-53
2021/07/22 09:50:18;;;;;;;30.17;15.93;;;;;;;43.39;20.01;98967.66;5034427;28;20047;-53
2021/07/22 09:52:45;;;;;;;14.82;11.55;;;;;;;43.30;20.10;98967.38;5049681;28;20515;-54
2021/07/22 09:55:26;;;;;;;14.00;12.50;;;;;;;43.73;19.50;98960.47;5032864;28;20419;-54
2021/07/22 09:57:57;;;;;;;15.95;12.25;;;;;;;43.56;19.99;98968.56;5049517;28;20017;-54
2021/07/22 10:00:24;;;;;;;16.67;12.27;;;;;;;43.23;20.38;98965.47;5034293;28;20029;-53
2021/07/22 10:02:51;;;;;;;13.57;12.27;;;;;;;43.04;20.62;98966.88;5049452;28;20112;-53
2021/07/22 10:05:26;;;;;;;24.42;14.27;;;;;;;43.02;20.76;98958.22;5034104;28;20030;-53
2021/07/22 10:07:53;;;;;;;18.15;12.05;;;;;;;43.05;20.90;98957.41;5034121;28;20037;-54
2021/07/22 10:10:26;;;;;;;17.92;13.27;;;;;;;43.22;20.77;98955.59;5034096;28;20096;-52
2021/07/22 10:12:52;;;;;;;;;;;;;;;43.24;21.04;98957.94;5034447;28;20022;-54
2021/07/22 10:15:21;;;;;;;14.98;12.73;;;;;;;43.37;20.38;98950.69;5033646;28;19942;-53
2021/07/22 10:17:48;;;;;;;14.98;11.98;;;;;;;43.37;20.38;98955.44;5033931;28;20440;-53
2021/07/22 10:20:16;;;;;;;13.98;12.00;;;;;;;42.92;20.74;98955.59;5049168;28;20438;-53
2021/07/22 10:22:45;;;;;;;13.95;12.13;;;;;;;42.89;20.75;98944.19;5033832;28;20021;-53
2021/07/22 10:25:15;;;;;;;14.52;12.18;;;;;;;42.98;20.81;98948.41;5033794;28;20048;-53
2021/07/22 10:27:42;;;;;;;13.75;12.40;;;;;;;42.80;20.88;98940.31;5033725;28;20056;-53
2021/07/22 10:30:13;;;;;;;12.38;10.80;;;;;;;42.59;21.13;98939.38;5033417;28;20029;-53
2021/07/22 10:32:43;;;;;;;14.32;12.60;;;;;;;42.53;21.29;98941.00;5033642;28;20041;-53
2021/07/22 10:35:10;;;;;;;14.23;12.63;;;;;;;42.16;21.40;98944.50;5033556;28;20057;-53
2021/07/22 10:37:36;;;;;;;16.02;12.25;;;;;;;42.27;21.40;98943.19;5048749;28;20025;-53
2021/07/22 10:40:08;;;;;;;20.15;12.25;;;;;;;42.60;20.97;98937.38;5033413;28;20557;-53
2021/07/22 10:42:46;;;;;;;13.77;12.35;;;;;;;42.81;20.43;98942.66;5033472;28;20025;-52
2021/07/22 10:45:20;;;;;;;13.30;11.95;;;;;;;42.98;20.52;98938.13;5031996;28;20604;-54
2021/07/22 10:48:10;;;;;;;16.45;12.85;;;;;;;42.74;20.79;98933.69;5033279;28;20025;-54
2021/07/22 10:50:45;;;;;;;14.60;11.07;;;;;;;42.61;20.57;98933.44;5048612;28;20045;-53
2021/07/22 10:53:11;;;;;;;14.73;11.32;;;;;;;42.71;19.92;98927.00;5033197;28;20028;-52
2021/07/22 10:55:43;;;;;;;14.00;11.65;;;;;;;42.60;19.92;98927.16;5033066;28;20368;-55
2021/07/22 10:58:23;;;;;;;13.15;11.07;;;;;;;42.59;20.08;98930.31;5033130;28;20398;-54
2021/07/22 11:00:50;;;;;;;13.68;10.48;;;;;;;42.52;19.95;98927.63;5033056;28;20029;-53
2021/07/22 11:03:37;;;;;;;23.20;12.20;;;;;;;42.35;19.96;98923.84;5033034;28;20028;-53
2021/07/22 11:06:03;;;;;;;38.38;12.63;;;;;;;42.53;19.91;98923.69;5032976;28;20448;-53
2021/07/22 11:08:31;;;;;;;34.38;12.45;;;;;;;42.53;19.79;98921.69;5032972;28;20147;-53
2021/07/22 11:10:57;;;;;;;12.65;11.07;;;;;;;42.31;19.99;98918.34;5032884;28;20028;-54
2021/07/22 11:13:54;;;;;;;13.07;11.10;;;;;;;42.58;19.62;98912.97;5048141;28;20025;-53
2021/07/22 11:16:29;;;;;;;13.05;11.05;;;;;;;42.84;19.32;98908.72;5046770;28;20123;-53